Time;durP1;ratioP1;P1;durP2;ratioP2;P2;SDS_P1;SDS_P2;PMS_P1;PMS_P2;Temp;Humidity;BMP_temperature;BMP_pressure;BME280_temperature;BME280_humidity;BME280_pressure;Samples;Min_cycle;Max_cycle;Signal;HPM_P1;HPM_P2
2021/04/08 00:01:14;;;;;;;6.53;5.03;;;11.60;99.90;;;;;;5124982;28;20504;-42
2021/04/08 00:03:45;;;;;;;4.67;4.23;;;11.70;99.90;;;;;;5125349;28;20457;-41
2021/04/08 00:06:16;;;;;;;7.80;7.10;;;12.00;99.90;;;;;;5124947;28;20491;-41
2021/04/08 00:08:46;;;;;;;8.23;7.53;;;12.10;99.90;;;;;;5124930;28;20455;-41
2021/04/08 00:11:18;;;;;;;6.30;5.73;;;12.20;99.90;;;;;;5124246;28;20441;-41
2021/04/08 00:13:48;;;;;;;4.90;4.40;;;12.30;99.90;;;;;;5125305;28;20472;-41
2021/04/08 00:16:18;;;;;;;6.27;5.50;;;12.20;99.90;;;;;;5124780;28;20458;-41
2021/04/08 00:18:48;;;;;;;4.47;4.07;;;12.00;99.90;;;;;;5125206;28;20449;-41
2021/04/08 00:21:18;;;;;;;5.50;4.27;;;11.70;99.90;;;;;;5123822;28;20457;-42
2021/04/08 00:23:48;;;;;;;12.77;11.77;;;11.40;99.90;;;;;;5125148;28;20946;-42
2021/04/08 00:26:19;;;;;;;6.40;5.90;;;11.30;99.90;;;;;;5124513;28;20488;-41
2021/04/08 00:28:49;;;;;;;6.90;5.53;;;11.30;99.90;;;;;;5125362;28;20195;-43
2021/04/08 00:31:20;;;;;;;6.60;4.50;;;11.40;99.90;;;;;;5124290;28;20541;-43
2021/04/08 00:33:50;;;;;;;6.88;5.90;;;11.30;99.90;;;;;;5124404;28;20206;-42
2021/04/08 00:36:20;;;;;;;7.20;6.60;;;11.30;99.90;;;;;;5123874;28;20201;-42
2021/04/08 00:38:50;;;;;;;7.70;7.00;;;11.20;99.90;;;;;;5124667;28;20202;-41
2021/04/08 00:41:21;;;;;;;6.90;6.20;;;11.30;99.90;;;;;;5122227;28;20457;-42
2021/04/08 00:43:52;;;;;;;6.23;5.63;;;11.40;99.90;;;;;;5123489;28;20862;-42
2021/04/08 00:46:22;;;;;;;4.70;3.40;;;11.60;99.90;;;;;;5123285;28;20494;-42
2021/04/08 00:48:52;;;;;;;5.03;4.03;;;11.80;99.90;;;;;;5123942;28;20480;-43
2021/04/08 00:51:23;;;;;;;4.03;3.67;;;12.00;99.90;;;;;;5123577;28;20799;-43
2021/04/08 00:53:54;;;;;;;3.80;3.43;;;12.00;99.90;;;;;;5123670;28;20442;-42
2021/04/08 00:56:25;;;;;;;3.57;3.17;;;12.00;99.90;;;;;;5122643;28;20430;-42
2021/04/08 00:58:56;;;;;;;9.97;4.23;;;12.00;99.90;;;;;;5123916;28;20505;-41
2021/04/08 01:01:26;;;;;;;3.43;3.23;;;11.90;99.90;;;;;;5123035;28;20486;-40
2021/04/08 01:03:56;;;;;;;4.50;4.17;;;12.00;99.90;;;;;;5123678;28;20509;-41
2021/04/08 01:06:26;;;;;;;5.00;4.50;;;11.90;99.90;;;;;;5123454;28;20670;-42
2021/04/08 01:08:56;;;;;;;4.47;3.57;;;11.80;99.90;;;;;;5121297;28;20836;-42
2021/04/08 01:11:27;;;;;;;2.10;2.00;;;11.90;99.90;;;;;;5122428;28;20456;-41
2021/04/08 01:13:57;;;;;;;1.73;1.60;;;11.90;99.90;;;;;;5123551;28;20942;-40
2021/04/08 01:16:36;;;;;;;10.63;9.83;;;11.70;99.90;;;;;;5118881;28;20444;-41
2021/04/08 01:19:25;;;;;;;2.70;2.50;;;11.70;99.90;;;;;;5122104;28;20449;-42
2021/04/08 01:22:02;;;;;;;3.40;3.20;;;11.60;99.90;;;;;;5123209;28;20465;-41
2021/04/08 01:25:22;;;;;;;2.90;2.70;;;11.40;99.90;;;;;;5122804;28;20498;-42
2021/04/08 01:28:15;;;;;;;2.00;1.90;;;11.30;99.90;;;;;;5121802;28;20478;-41
2021/04/08 01:30:48;;;;;;;1.83;1.73;;;11.10;99.90;;;;;;5122253;28;20460;-41
2021/04/08 01:33:21;;;;;;;2.63;2.42;;;11.00;99.90;;;;;;5123477;28;20459;-41
2021/04/08 01:35:52;;;;;;;3.33;3.13;;;11.00;99.90;;;;;;5122465;28;20200;-41
2021/04/08 01:38:28;;;;;;;1.30;1.20;;;10.90;99.90;;;;;;5123077;28;20206;-41
2021/04/08 01:40:59;;;;;;;0.90;0.90;;;10.90;99.90;;;;;;5122009;28;20210;-42
2021/04/08 01:43:34;;;;;;;1.00;0.97;;;11.00;99.90;;;;;;5122114;28;20271;-42
2021/04/08 01:46:09;;;;;;;1.73;1.63;;;10.90;99.90;;;;;;5122580;28;20454;-42
2021/04/08 01:48:44;;;;;;;1.67;1.58;;;11.00;99.90;;;;;;5123373;28;20188;-41
2021/04/08 01:51:16;;;;;;;0.85;0.85;;;10.80;99.90;;;;;;5122395;28;20206;-41
2021/04/08 01:53:49;;;;;;;2.00;1.80;;;10.70;99.90;;;;;;5122331;28;20196;-39
2021/04/08 01:56:21;;;;;;;1.48;1.38;;;10.60;99.90;;;;;;5115076;28;20201;-41
2021/04/08 01:58:52;;;;;;;0.90;0.90;;;10.70;99.90;;;;;;5122339;28;20202;-42
2021/04/08 02:01:25;;;;;;;1.80;1.70;;;10.60;99.90;;;;;;5122750;28;20551;-42
2021/04/08 02:03:56;;;;;;;3.08;1.70;;;10.60;99.90;;;;;;5122545;28;20184;-42
2021/04/08 02:06:28;;;;;;;4.32;1.10;;;10.60;99.90;;;;;;5122337;28;20297;-42
2021/04/08 02:09:00;;;;;;;1.30;1.23;;;10.70;99.90;;;;;;5122966;28;20208;-41
2021/04/08 02:11:32;;;;;;;2.10;1.60;;;10.70;99.90;;;;;;5121301;28;20205;-42
2021/04/08 02:14:03;;;;;;;1.48;1.27;;;10.70;99.90;;;;;;5122330;28;20603;-42
2021/04/08 02:16:35;;;;;;;1.55;1.45;;;10.80;99.90;;;;;;5120897;28;20193;-42
2021/04/08 02:19:09;;;;;;;1.40;1.10;;;10.60;99.90;;;;;;5120786;28;20199;-42
2021/04/08 02:21:40;;;;;;;0.90;0.90;;;10.60;99.90;;;;;;5123769;28;20214;-42
2021/04/08 02:24:12;;;;;;;1.50;1.40;;;10.50;99.90;;;;;;5126884;28;20248;-42
2021/04/08 02:26:42;;;;;;;2.08;1.02;;;10.50;99.90;;;;;;5125718;28;20300;-42
2021/04/08 02:29:14;;;;;;;2.05;1.20;;;10.60;99.90;;;;;;5127526;28;20208;-42
2021/04/08 02:31:46;;;;;;;7.65;6.68;;;10.50;99.90;;;;;;5126362;28;20287;-42
2021/04/08 02:34:19;;;;;;;4.75;4.25;;;10.50;99.90;;;;;;5110976;28;20612;-41
2021/04/08 02:36:49;;;;;;;2.78;2.58;;;10.50;99.90;;;;;;5126229;28;20228;-42
2021/04/08 02:39:19;;;;;;;1.30;1.20;;;10.50;99.90;;;;;;5126502;28;20204;-42
2021/04/08 02:41:50;;;;;;;2.55;2.35;;;10.30;99.90;;;;;;5124498;28;20211;-41
2021/04/08 02:44:20;;;;;;;4.68;4.38;;;10.30;99.90;;;;;;5125606;28;20339;-41
2021/04/08 02:46:52;;;;;;;6.55;5.95;;;10.30;99.90;;;;;;5125106;28;20228;-42
2021/04/08 02:49:22;;;;;;;3.50;3.20;;;10.30;99.90;;;;;;5125908;28;20201;-42
2021/04/08 02:51:55;;;;;;;12.10;11.00;;;10.30;99.90;;;;;;5125830;28;20192;-41
2021/04/08 02:54:34;;;;;;;11.68;10.68;;;10.20;99.90;;;;;;5125486;28;20200;-41
2021/04/08 02:57:05;;;;;;;7.00;6.40;;;10.10;99.90;;;;;;5124487;28;20201;-43
2021/04/08 02:59:45;;;;;;;5.78;5.35;;;10.10;99.90;;;;;;5126317;28;20192;-41
2021/04/08 03:02:20;;;;;;;5.45;5.05;;;10.00;99.90;;;;;;5124920;28;20200;-41
2021/04/08 03:04:54;;;;;;;4.25;3.95;;;10.10;99.90;;;;;;5125396;28;20250;-41
2021/04/08 03:07:28;;;;;;;3.05;2.85;;;10.00;99.90;;;;;;5125330;28;20222;-41
2021/04/08 03:10:00;;;;;;;3.97;3.55;;;10.10;99.90;;;;;;5125846;28;20214;-43
2021/04/08 03:12:33;;;;;;;2.03;1.92;;;10.10;99.90;;;;;;5124737;28;20208;-42
2021/04/08 03:15:04;;;;;;;3.35;3.05;;;10.10;99.90;;;;;;5125714;28;20193;-41
2021/04/08 03:17:40;;;;;;;4.45;4.05;;;10.10;99.90;;;;;;5126122;28;20257;-41
2021/04/08 03:20:13;;;;;;;5.60;5.10;;;10.10;99.90;;;;;;5125442;28;20209;-41
2021/04/08 03:22:46;;;;;;;6.55;5.50;;;10.00;99.90;;;;;;5118462;28;20194;-42
2021/04/08 03:25:17;;;;;;;7.93;7.13;;;10.00;99.90;;;;;;5125572;28;20361;-42
2021/04/08 03:27:48;;;;;;;3.67;3.30;;;10.10;99.90;;;;;;5124845;28;20277;-41
2021/04/08 03:30:20;;;;;;;3.17;2.90;;;10.10;99.90;;;;;;5125898;28;20213;-43
2021/04/08 03:32:54;;;;;;;6.95;6.28;;;10.10;99.90;;;;;;5114908;28;20222;-42
2021/04/08 03:35:25;;;;;;;5.82;4.53;;;10.00;99.90;;;;;;5124453;28;20209;-42
2021/04/08 03:37:56;;;;;;;4.07;3.35;;;10.00;99.90;;;;;;5125312;28;20180;-41
2021/04/08 03:40:26;;;;;;;11.90;10.18;;;10.00;99.90;;;;;;5124067;28;20240;-41
2021/04/08 03:42:58;;;;;;;1.90;1.80;;;10.00;99.90;;;;;;5124129;28;20221;-41
2021/04/08 03:45:28;;;;;;;3.13;2.35;;;9.90;99.90;;;;;;5124765;28;20233;-41
2021/04/08 03:48:02;;;;;;;3.50;3.05;;;9.90;99.90;;;;;;5124835;28;20221;-41
2021/04/08 03:50:34;;;;;;;3.08;1.63;;;9.80;99.90;;;;;;5119463;28;20219;-41
2021/04/08 03:53:06;;;;;;;2.95;2.63;;;9.90;99.90;;;;;;5125312;28;20201;-41
2021/04/08 03:55:36;;;;;;;3.90;3.60;;;9.80;99.90;;;;;;5110995;28;20247;-41
2021/04/08 03:58:10;;;;;;;1.15;1.02;;;9.70;99.90;;;;;;5123852;28;20733;-41
2021/04/08 04:00:41;;;;;;;3.15;1.52;;;9.70;99.90;;;;;;5122243;28;20197;-40
2021/04/08 04:03:14;;;;;;;2.40;1.27;;;9.70;99.90;;;;;;5124272;28;20200;-40
2021/04/08 04:05:45;;;;;;;1.27;1.05;;;9.80;99.90;;;;;;5110872;28;20241;-39
2021/04/08 04:08:15;;;;;;;3.85;1.55;;;9.70;99.90;;;;;;5125464;28;20265;-41
2021/04/08 04:10:46;;;;;;;2.65;1.25;;;9.70;99.90;;;;;;5124536;28;20250;-39
2021/04/08 04:13:17;;;;;;;1.38;1.27;;;9.70;99.90;;;;;;5123744;28;20204;-41
2021/04/08 04:15:49;;;;;;;1.05;0.73;;;9.70;99.90;;;;;;5125078;28;20239;-42
2021/04/08 04:18:20;;;;;;;1.20;1.00;;;9.70;99.90;;;;;;5122028;28;20204;-42
2021/04/08 04:20:50;;;;;;;1.08;0.90;;;9.60;99.90;;;;;;5123525;28;20207;-42
2021/04/08 04:23:22;;;;;;;2.45;0.77;;;9.60;99.90;;;;;;5124655;28;20222;-41
2021/04/08 04:25:53;;;;;;;3.80;1.50;;;9.60;99.90;;;;;;5123724;28;20259;-42
2021/04/08 04:28:27;;;;;;;0.90;0.90;;;9.60;99.90;;;;;;5124049;28;20262;-41
2021/04/08 04:30:57;;;;;;;1.25;1.00;;;9.60;99.90;;;;;;5125090;28;20209;-42
2021/04/08 04:33:28;;;;;;;0.63;0.63;;;9.60;99.90;;;;;;5123476;28;20256;-41
2021/04/08 04:35:59;;;;;;;0.90;0.90;;;9.50;99.90;;;;;;5119569;28;20219;-39
2021/04/08 04:38:29;;;;;;;0.63;0.55;;;9.50;99.90;;;;;;5123345;28;20222;-41
2021/04/08 04:40:59;;;;;;;0.70;0.60;;;9.50;99.90;;;;;;5122379;28;20200;-41
2021/04/08 04:43:48;;;;;;;0.88;0.75;;;9.50;99.90;;;;;;5122569;28;20204;-42
2021/04/08 04:46:19;;;;;;;0.60;0.60;;;9.40;99.90;;;;;;5119813;28;20215;-41
2021/04/08 04:48:55;;;;;;;2.10;0.63;;;9.40;99.90;;;;;;5123938;28;20677;-39
2021/04/08 04:51:25;;;;;;;0.65;0.47;;;9.40;99.90;;;;;;5123185;28;20192;-41
2021/04/08 04:53:56;;;;;;;1.08;0.45;;;9.30;99.90;;;;;;5123806;28;20199;-41
2021/04/08 04:56:26;;;;;;;0.60;0.60;;;9.30;99.90;;;;;;5122167;28;21013;-41
2021/04/08 04:58:56;;;;;;;1.70;0.35;;;9.30;99.90;;;;;;5113078;28;20200;-42
2021/04/08 05:01:26;;;;;;;0.50;0.47;;;9.30;99.90;;;;;;5123296;28;20230;-42
2021/04/08 05:03:57;;;;;;;0.85;0.40;;;9.30;99.90;;;;;;5123080;27;20230;-41
2021/04/08 05:06:28;;;;;;;0.60;0.55;;;9.20;99.90;;;;;;5122792;28;20189;-39
2021/04/08 05:08:58;;;;;;;0.90;0.43;;;9.20;99.90;;;;;;5122024;28;20199;-38
2021/04/08 05:11:29;;;;;;;1.45;0.68;;;9.20;99.90;;;;;;5123170;28;20219;-40
2021/04/08 05:13:59;;;;;;;0.60;0.60;;;9.20;99.90;;;;;;5122526;28;20204;-38
2021/04/08 05:16:29;;;;;;;1.13;0.60;;;9.20;99.90;;;;;;5122743;28;20203;-40
2021/04/08 05:19:00;;;;;;;2.42;0.80;;;9.20;99.90;;;;;;5115850;28;20205;-40
2021/04/08 05:21:30;;;;;;;1.60;0.70;;;9.30;99.90;;;;;;5123432;28;20184;-39
2021/04/08 05:24:00;;;;;;;1.25;0.40;;;9.30;99.90;;;;;;5122376;28;20197;-41
2021/04/08 05:26:30;;;;;;;1.77;0.50;;;9.20;99.90;;;;;;5121993;28;20236;-40
2021/04/08 05:29:00;;;;;;;1.42;0.70;;;9.20;99.90;;;;;;5121755;28;20200;-43
2021/04/08 05:31:31;;;;;;;0.77;0.60;;;9.10;99.90;;;;;;5122945;28;20225;-40
2021/04/08 05:34:03;;;;;;;1.38;0.70;;;9.10;99.90;;;;;;5122283;28;20189;-39
2021/04/08 05:36:33;;;;;;;0.68;0.68;;;9.20;99.90;;;;;;5123038;28;20198;-41
2021/04/08 05:39:04;;;;;;;0.70;0.43;;;9.20;99.90;;;;;;5122989;28;20219;-41
2021/04/08 05:41:34;;;;;;;0.90;0.60;;;9.20;99.90;;;;;;5122295;28;20196;-41
2021/04/08 05:44:04;;;;;;;1.55;0.70;;;9.20;99.90;;;;;;5122546;28;20224;-41
2021/04/08 05:46:35;;;;;;;1.17;0.60;;;9.20;99.90;;;;;;5121954;28;20207;-41
2021/04/08 05:49:06;;;;;;;0.63;0.60;;;9.10;99.90;;;;;;5123461;28;20212;-42
2021/04/08 05:51:36;;;;;;;0.77;0.60;;;9.10;99.90;;;;;;5123405;28;20192;-42
2021/04/08 05:54:07;;;;;;;2.63;1.15;;;9.10;99.90;;;;;;5122890;28;20195;-42
2021/04/08 05:56:37;;;;;;;0.85;0.40;;;9.10;99.90;;;;;;5122464;28;20273;-42
2021/04/08 05:59:07;;;;;;;0.60;0.50;;;9.10;99.90;;;;;;5127222;28;20200;-42
2021/04/08 06:01:37;;;;;;;1.02;0.50;;;9.10;99.90;;;;;;5127429;28;20203;-42
2021/04/08 06:04:11;;;;;;;1.65;0.55;;;9.10;99.90;;;;;;5120966;28;20268;-42
2021/04/08 06:06:41;;;;;;;1.05;0.70;;;9.00;99.90;;;;;;5127143;28;20594;-41
2021/04/08 06:09:11;;;;;;;0.80;0.60;;;9.00;99.90;;;;;;5127134;28;20241;-42
2021/04/08 06:11:41;;;;;;;0.88;0.50;;;9.00;99.90;;;;;;5125854;28;20195;-41
2021/04/08 06:14:11;;;;;;;0.43;0.30;;;9.00;99.90;;;;;;5125989;28;20200;-42
2021/04/08 06:16:41;;;;;;;2.70;0.93;;;9.00;99.90;;;;;;5126473;28;20191;-42
2021/04/08 06:19:12;;;;;;;0.50;0.45;;;9.00;99.90;;;;;;5126467;28;20192;-43
2021/04/08 06:21:43;;;;;;;0.93;0.82;;;9.00;99.90;;;;;;5126288;28;20196;-42
2021/04/08 06:24:13;;;;;;;0.50;0.50;;;9.10;99.90;;;;;;5126405;28;20217;-42
2021/04/08 06:26:43;;;;;;;1.13;0.40;;;9.10;99.90;;;;;;5125643;28;20399;-42
2021/04/08 06:29:13;;;;;;;0.75;0.70;;;9.10;99.90;;;;;;5126715;28;20207;-42
2021/04/08 06:31:49;;;;;;;1.13;0.68;;;9.20;99.90;;;;;;5124832;28;20258;-42
2021/04/08 06:34:21;;;;;;;1.05;0.80;;;9.30;99.90;;;;;;5126515;28;20200;-43
2021/04/08 06:36:51;;;;;;;0.50;0.50;;;9.20;99.90;;;;;;5126132;28;20570;-43
2021/04/08 06:39:21;;;;;;;1.25;0.75;;;9.20;99.90;;;;;;5126744;28;20211;-42
2021/04/08 06:41:52;;;;;;;0.50;0.50;;;9.20;99.90;;;;;;5125181;28;20252;-41
2021/04/08 06:44:25;;;;;;;1.42;0.60;;;9.10;99.90;;;;;;5125293;28;20227;-41
2021/04/08 06:47:00;;;;;;;1.25;0.80;;;9.00;99.90;;;;;;5119101;28;20188;-41
2021/04/08 06:49:38;;;;;;;1.10;0.70;;;9.00;99.90;;;;;;5125760;28;20195;-41
2021/04/08 06:52:09;;;;;;;0.50;0.50;;;9.00;99.90;;;;;;5120676;28;20296;-42
2021/04/08 06:54:40;;;;;;;0.82;0.80;;;9.10;99.90;;;;;;5125657;28;20203;-41
2021/04/08 06:57:10;;;;;;;1.20;0.80;;;9.20;99.90;;;;;;5125199;28;20287;-41
2021/04/08 06:59:40;;;;;;;1.00;0.63;;;9.10;99.90;;;;;;5114980;28;20261;-42
2021/04/08 07:02:15;;;;;;;0.68;0.68;;;9.10;99.90;;;;;;5122743;28;20196;-41
2021/04/08 07:04:47;;;;;;;0.68;0.60;;;9.10;99.90;;;;;;5125218;28;20194;-41
2021/04/08 07:07:17;;;;;;;0.47;0.47;;;9.00;99.90;;;;;;5110554;28;20272;-41
2021/04/08 07:09:51;;;;;;;1.13;0.60;;;9.00;99.90;;;;;;5125161;28;20215;-41
2021/04/08 07:12:21;;;;;;;0.40;0.40;;;8.90;99.90;;;;;;5124955;28;20659;-42
2021/04/08 07:14:53;;;;;;;0.77;0.70;;;8.90;99.90;;;;;;5125165;28;20263;-42
2021/04/08 07:17:24;;;;;;;0.47;0.40;;;8.90;99.90;;;;;;5126514;28;20196;-41
2021/04/08 07:20:00;;;;;;;0.55;0.50;;;8.80;99.90;;;;;;5125722;28;20208;-42
2021/04/08 07:22:31;;;;;;;0.60;0.60;;;8.80;99.90;;;;;;5125252;28;20616;-40
2021/04/08 07:25:00;;;;;;;0.90;0.60;;;8.90;99.90;;;;;;5125882;28;20200;-40
2021/04/08 07:27:34;;;;;;;0.80;0.80;;;8.80;99.90;;;;;;5124800;28;20216;-41
2021/04/08 07:30:05;;;;;;;0.85;0.82;;;8.80;99.90;;;;;;5125679;28;20227;-42
2021/04/08 07:32:37;;;;;;;1.30;0.90;;;8.80;99.90;;;;;;5125887;28;20630;-39
2021/04/08 07:35:16;;;;;;;0.77;0.77;;;8.80;99.90;;;;;;5125310;28;20214;-40
2021/04/08 07:37:55;;;;;;;0.70;0.68;;;8.80;99.90;;;;;;5125309;28;20285;-41
2021/04/08 07:40:27;;;;;;;1.10;1.00;;;8.70;99.90;;;;;;5125706;28;20556;-40
2021/04/08 07:42:57;;;;;;;3.58;0.65;;;8.80;99.90;;;;;;5124273;28;20205;-41
2021/04/08 07:45:29;;;;;;;1.13;0.88;;;8.80;99.90;;;;;;5124779;28;20299;-41
2021/04/08 07:48:00;;;;;;;1.05;0.70;;;8.80;99.90;;;;;;5125707;28;20223;-42
2021/04/08 07:50:33;;;;;;;1.10;1.00;;;8.80;99.90;;;;;;5125458;28;20270;-41
2021/04/08 07:53:04;;;;;;;1.00;0.80;;;8.80;99.90;;;;;;5118871;28;20200;-42
2021/04/08 07:55:38;;;;;;;0.70;0.70;;;8.80;99.90;;;;;;5125228;28;20200;-42
2021/04/08 07:58:09;;;;;;;0.93;0.93;;;8.80;99.90;;;;;;5124271;28;20204;-39
2021/04/08 08:00:40;;;;;;;1.02;1.02;;;8.80;99.90;;;;;;5124873;28;21293;-42
2021/04/08 08:03:23;;;;;;;1.02;1.02;;;8.80;99.90;;;;;;5109202;28;20256;-41
2021/04/08 08:05:58;;;;;;;1.05;0.75;;;8.80;99.90;;;;;;5123935;28;20256;-39
2021/04/08 08:08:37;;;;;;;1.40;1.00;;;8.80;99.90;;;;;;5124714;28;20239;-40
2021/04/08 08:11:09;;;;;;;1.10;1.10;;;8.70;99.90;;;;;;5124534;28;20212;-39
2021/04/08 08:13:40;;;;;;;1.55;1.15;;;8.70;99.90;;;;;;5123028;28;20204;-40
2021/04/08 08:16:19;;;;;;;1.63;1.05;;;8.70;99.90;;;;;;5123984;28;20230;-40
2021/04/08 08:18:50;;;;;;;1.48;1.20;;;8.70;99.90;;;;;;5125085;28;20282;-41
2021/04/08 08:21:29;;;;;;;0.98;0.88;;;8.70;99.90;;;;;;5124684;28;20241;-39
2021/04/08 08:24:00;;;;;;;0.95;0.95;;;8.70;99.90;;;;;;5124914;28;20200;-41
2021/04/08 08:26:32;;;;;;;0.80;0.80;;;8.70;99.90;;;;;;5123417;28;20305;-41
2021/04/08 08:29:04;;;;;;;1.00;1.00;;;8.70;99.90;;;;;;5124708;28;20224;-42
2021/04/08 08:31:40;;;;;;;2.38;0.85;;;8.60;99.90;;;;;;5124707;28;20196;-41
2021/04/08 08:34:16;;;;;;;0.85;0.80;;;8.60;99.90;;;;;;5124743;28;20207;-41
2021/04/08 08:36:50;;;;;;;1.65;0.85;;;8.60;99.90;;;;;;5124398;28;20196;-39
2021/04/08 08:39:22;;;;;;;1.85;1.00;;;8.60;99.90;;;;;;5125109;28;20227;-40
2021/04/08 08:41:52;;;;;;;0.90;0.88;;;8.60;99.90;;;;;;5123810;28;20204;-41
2021/04/08 08:44:24;;;;;;;1.40;1.30;;;8.60;99.90;;;;;;5124259;28;20234;-41
2021/04/08 08:46:59;;;;;;;1.60;1.00;;;8.60;99.90;;;;;;5124104;28;20204;-40
2021/04/08 08:49:33;;;;;;;1.38;1.23;;;8.60;99.90;;;;;;5124593;28;20196;-41
2021/04/08 08:52:06;;;;;;;0.98;0.98;;;8.60;99.90;;;;;;5124914;28;20191;-43
2021/04/08 08:54:36;;;;;;;1.58;1.20;;;8.50;99.90;;;;;;5124031;28;20390;-43
2021/04/08 08:57:07;;;;;;;1.13;1.02;;;8.50;99.90;;;;;;5123368;28;20248;-40
2021/04/08 08:59:38;;;;;;;0.90;0.90;;;8.50;99.90;;;;;;5119947;28;20208;-40
2021/04/08 09:02:10;;;;;;;1.42;1.20;;;8.40;99.90;;;;;;5124089;28;20218;-39
2021/04/08 09:04:40;;;;;;;1.00;1.00;;;8.30;99.90;;;;;;5123782;28;20196;-38
2021/04/08 09:07:14;;;;;;;1.63;1.52;;;8.30;99.90;;;;;;5123941;28;20590;-39
2021/04/08 09:09:49;;;;;;;1.30;1.15;;;8.30;99.90;;;;;;5124554;28;20203;-40
2021/04/08 09:12:20;;;;;;;1.38;1.20;;;8.30;99.90;;;;;;5122656;28;20200;-39
2021/04/08 09:14:51;;;;;;;1.00;1.00;;;8.20;99.90;;;;;;5123487;28;20207;-39
2021/04/08 09:17:41;;;;;;;1.27;1.02;;;8.20;99.90;;;;;;5123053;28;20219;-40
2021/04/08 09:20:13;;;;;;;1.52;0.80;;;8.30;99.90;;;;;;5123724;28;20297;-40
2021/04/08 09:22:56;;;;;;;2.17;1.20;;;8.30;99.90;;;;;;5123639;28;20200;-40
2021/04/08 09:25:31;;;;;;;1.98;1.30;;;8.30;99.90;;;;;;5123611;28;20271;-42
2021/04/08 09:28:08;;;;;;;1.02;0.93;;;8.30;99.90;;;;;;5120774;28;20261;-40
2021/04/08 09:30:45;;;;;;;0.75;0.75;;;8.30;99.90;;;;;;5123336;28;20287;-40
2021/04/08 09:33:15;;;;;;;0.80;0.80;;;8.40;99.90;;;;;;5123137;28;20203;-40
2021/04/08 09:35:45;;;;;;;1.23;1.23;;;8.30;99.90;;;;;;5117073;28;20249;-40
2021/04/08 09:38:18;;;;;;;1.80;1.60;;;8.30;99.90;;;;;;5117875;28;20286;-41
2021/04/08 09:40:53;;;;;;;3.88;2.00;;;8.40;99.90;;;;;;5122481;28;20204;-40
2021/04/08 09:43:25;;;;;;;1.30;1.02;;;8.40;99.90;;;;;;5123322;28;20332;-40
2021/04/08 09:46:02;;;;;;;0.90;0.80;;;8.30;99.90;;;;;;5122389;28;20203;-40
2021/04/08 09:48:49;;;;;;;0.90;0.90;;;8.30;99.90;;;;;;5122264;28;20695;-39
2021/04/08 09:51:31;;;;;;;0.65;0.65;;;8.30;99.90;;;;;;5122610;28;20208;-38
2021/04/08 09:54:05;;;;;;;0.70;0.60;;;8.40;99.90;;;;;;5118268;28;20211;-39
2021/04/08 09:56:48;;;;;;;0.80;0.80;;;8.30;99.90;;;;;;5120086;28;20243;-40
2021/04/08 09:59:18;;;;;;;1.52;0.80;;;8.30;99.90;;;;;;5123151;28;20207;-40
2021/04/08 10:01:49;;;;;;;1.10;1.00;;;8.30;99.90;;;;;;5122060;28;20196;-40
2021/04/08 10:04:24;;;;;;;3.05;1.00;;;8.10;99.90;;;;;;5123105;28;20570;-39
2021/04/08 10:07:05;;;;;;;0.70;0.70;;;8.20;99.90;;;;;;5121479;28;20238;-39
2021/04/08 10:09:36;;;;;;;0.80;0.80;;;8.20;99.90;;;;;;5117873;28;20204;-40
2021/04/08 10:12:07;;;;;;;0.50;0.50;;;8.20;99.90;;;;;;5120774;28;20199;-41
2021/04/08 10:14:37;;;;;;;0.65;0.60;;;8.20;99.90;;;;;;5123133;28;20200;-41
2021/04/08 10:17:10;;;;;;;0.70;0.70;;;8.20;99.90;;;;;;5122479;28;20268;-40
2021/04/08 10:19:42;;;;;;;0.73;0.73;;;8.20;99.90;;;;;;5122941;28;20232;-40
2021/04/08 10:22:13;;;;;;;0.85;0.85;;;8.20;99.90;;;;;;5122425;28;20291;-41
2021/04/08 10:24:47;;;;;;;1.30;0.85;;;8.20;99.90;;;;;;5122921;28;20227;-40
2021/04/08 10:27:20;;;;;;;2.10;0.80;;;8.10;99.90;;;;;;5121382;28;20200;-41
2021/04/08 10:29:50;;;;;;;0.90;0.77;;;8.10;99.90;;;;;;5122770;28;20200;-41
2021/04/08 10:32:34;;;;;;;2.08;1.00;;;8.10;99.90;;;;;;5123009;28;20196;-39
2021/04/08 10:35:05;;;;;;;1.02;0.90;;;8.10;99.90;;;;;;5114769;28;20192;-40
2021/04/08 10:37:35;;;;;;;0.60;0.60;;;8.10;99.90;;;;;;5122510;28;20208;-39
2021/04/08 10:40:11;;;;;;;1.73;0.80;;;8.20;99.90;;;;;;5122692;28;20223;-40
2021/04/08 10:42:41;;;;;;;0.63;0.63;;;8.10;99.90;;;;;;5122314;28;20219;-40
2021/04/08 10:45:12;;;;;;;0.60;0.60;;;8.10;99.90;;;;;;5123797;28;20233;-39
2021/04/08 10:47:43;;;;;;;1.75;0.82;;;8.10;99.90;;;;;;5125919;28;20265;-39
2021/04/08 10:50:19;;;;;;;1.13;0.90;;;8.20;99.90;;;;;;5124857;28;20195;-40
2021/04/08 10:52:49;;;;;;;2.10;1.40;;;8.30;99.90;;;;;;5125719;28;20199;-41
2021/04/08 10:55:25;;;;;;;1.80;1.55;;;8.30;99.90;;;;;;5126433;28;20233;-40
2021/04/08 10:57:55;;;;;;;2.85;1.70;;;8.00;99.90;;;;;;5124883;28;20223;-40
2021/04/08 11:00:26;;;;;;;3.05;1.63;;;7.90;99.90;;;;;;5122549;28;20200;-40
2021/04/08 11:02:58;;;;;;;3.25;2.15;;;7.70;99.90;;;;;;5117035;28;20265;-40
2021/04/08 11:05:28;;;;;;;2.80;1.75;;;7.60;99.90;;;;;;5125962;28;20200;-40
2021/04/08 11:07:59;;;;;;;3.25;2.10;;;7.60;99.90;;;;;;5125808;28;20314;-40
2021/04/08 11:10:31;;;;;;;3.97;2.20;;;7.40;99.90;;;;;;5125463;28;20219;-41
2021/04/08 11:13:02;;;;;;;5.78;2.33;;;7.40;99.90;;;;;;5125227;28;20225;-41
2021/04/08 11:15:34;;;;;;;2.05;1.85;;;7.30;99.90;;;;;;5125425;28;20210;-40
2021/04/08 11:18:08;;;;;;;2.83;2.47;;;7.30;99.90;;;;;;5125880;28;20291;-40
2021/04/08 11:20:40;;;;;;;2.38;2.17;;;7.30;99.90;;;;;;5125016;28;20207;-39
2021/04/08 11:23:12;;;;;;;2.65;2.38;;;7.20;99.90;;;;;;5124475;28;20200;-39
2021/04/08 11:25:43;;;;;;;2.85;2.53;;;7.10;99.90;;;;;;5125846;28;20207;-40
2021/04/08 11:28:13;;;;;;;3.65;2.53;;;7.00;99.90;;;;;;5123933;28;20580;-40
2021/04/08 11:30:45;;;;;;;3.28;2.58;;;6.80;99.90;;;;;;5125579;28;20214;-40
2021/04/08 11:33:22;;;;;;;3.17;2.88;;;6.80;99.90;;;;;;5121649;28;20192;-40
2021/04/08 11:35:52;;;;;;;4.45;2.92;;;6.80;99.90;;;;;;5124692;28;20264;-40
2021/04/08 11:38:23;;;;;;;3.35;2.58;;;6.60;99.90;;;;;;5124891;28;20261;-40
2021/04/08 11:41:09;;;;;;;3.42;2.53;;;6.60;99.90;;;;;;5117021;28;20227;-40
2021/04/08 11:43:48;;;;;;;3.15;2.58;;;6.50;99.90;;;;;;5122584;28;20331;-41
2021/04/08 11:46:40;;;;;;;3.25;2.95;;;6.50;99.90;;;;;;5124976;28;20650;-40
2021/04/08 11:49:18;;;;;;;3.53;2.80;;;6.50;99.90;;;;;;5121219;28;20220;-40
2021/04/08 11:51:48;;;;;;;4.07;2.55;;;6.50;99.90;;;;;;5124679;28;20199;-39
2021/04/08 11:54:20;;;;;;;3.38;2.58;;;6.50;99.90;;;;;;5125061;28;20550;-38
2021/04/08 11:56:51;;;;;;;3.17;2.28;;;6.40;99.90;;;;;;5124461;28;20261;-40
2021/04/08 11:59:22;;;;;;;3.35;2.60;;;6.40;99.90;;;;;;5124918;28;20203;-38
2021/04/08 12:01:53;;;;;;;4.38;2.53;;;6.40;99.90;;;;;;5124379;28;20297;-38
2021/04/08 12:04:25;;;;;;;3.92;2.63;;;6.40;99.90;;;;;;5125599;28;20268;-40
2021/04/08 12:06:57;;;;;;;5.32;3.10;;;6.40;99.90;;;;;;5122590;28;20225;-38
2021/04/08 12:09:36;;;;;;;3.92;2.40;;;6.30;99.90;;;;;;5124412;28;20580;-35
2021/04/08 12:12:09;;;;;;;3.55;2.70;;;6.20;99.90;;;;;;5123072;28;20276;-41
2021/04/08 12:14:54;;;;;;;3.58;3.03;;;6.20;99.90;;;;;;5125188;28;20253;-40
2021/04/08 12:17:25;;;;;;;2.75;2.30;;;6.10;99.90;;;;;;5123668;28;20249;-41
2021/04/08 12:20:12;;;;;;;2.78;2.03;;;6.10;99.90;;;;;;5123585;28;20666;-40
2021/04/08 12:22:42;;;;;;;3.10;2.58;;;6.10;99.90;;;;;;5124365;28;20261;-41
2021/04/08 12:25:14;;;;;;;3.88;2.80;;;6.00;99.90;;;;;;5125354;28;20189;-38
2021/04/08 12:27:46;;;;;;;6.28;2.90;;;5.90;99.90;;;;;;5124339;28;20200;-45
2021/04/08 12:30:20;;;;;;;2.60;2.30;;;5.90;99.90;;;;;;5123938;28;20200;-41
2021/04/08 12:32:52;;;;;;;4.53;2.45;;;5.90;99.90;;;;;;5124379;28;20207;-40
2021/04/08 12:35:22;;;;;;;3.90;2.42;;;5.90;99.90;;;;;;5124514;28;20216;-40
2021/04/08 12:37:52;;;;;;;2.92;2.17;;;5.90;99.90;;;;;;5124443;28;20261;-40
2021/04/08 12:40:22;;;;;;;3.15;2.13;;;5.80;99.90;;;;;;5123995;28;20214;-38
2021/04/08 12:42:54;;;;;;;4.45;2.58;;;5.90;99.90;;;;;;5123510;28;20196;-38
2021/04/08 12:45:26;;;;;;;3.80;2.65;;;5.90;99.90;;;;;;5123012;28;20223;-40
2021/04/08 12:47:57;;;;;;;2.95;2.53;;;5.80;99.90;;;;;;5123811;28;20229;-39
2021/04/08 12:50:27;;;;;;;7.35;2.80;;;5.80;99.90;;;;;;5123158;28;20203;-39
2021/04/08 12:52:57;;;;;;;7.07;3.47;;;5.90;99.90;;;;;;5123161;28;20196;-39
2021/04/08 12:55:27;;;;;;;5.75;3.45;;;5.90;99.90;;;;;;5123980;28;20195;-41
2021/04/08 12:57:58;;;;;;;4.55;3.10;;;6.00;99.90;;;;;;5109370;28;20204;-40
2021/04/08 13:00:29;;;;;;;4.88;2.70;;;6.10;99.90;;;;;;5123031;28;20212;-41
2021/04/08 13:02:59;;;;;;;3.30;2.45;;;6.10;99.90;;;;;;5123614;28;20223;-40
2021/04/08 13:05:29;;;;;;;4.35;2.35;;;6.30;99.90;;;;;;5123611;28;20230;-41
2021/04/08 13:08:00;;;;;;;3.28;2.47;;;6.40;99.90;;;;;;5109255;28;20708;-40
2021/04/08 13:10:30;;;;;;;4.68;2.50;;;6.40;99.90;;;;;;5123510;28;20217;-40
2021/04/08 13:13:01;;;;;;;4.72;2.97;;;6.40;99.90;;;;;;5122950;28;20211;-38
2021/04/08 13:15:31;;;;;;;5.85;2.65;;;6.40;99.90;;;;;;5123360;28;20212;-41
2021/04/08 13:18:02;;;;;;;3.97;2.40;;;6.50;99.90;;;;;;5123048;28;21225;-41
2021/04/08 13:20:33;;;;;;;4.28;2.10;;;6.40;99.90;;;;;;5123244;28;20199;-41